Delta Virtual Airport Information Service

Baltimore Washington International Airport

ICAO: KBWI Country: United States
Latitude: 39.1754 Longitude: -76.6683
Latest Arrival : SWA192 (B) (KFLL-KBWI) Latest Departure : SWA1246 (B) (KBWI-KSDF)


WX CaptureLIVE
Data provided by noaa.gov | Fetched at 08:37:50

METAR : KBWI 041254Z 35010G19KT 1SM R10/5000VP6000FT +RA BR SCT007 BKN021 OVC047 21/20 A2969 RMK AO2 SLP051 P0066 T02110200

TAF : KBWI 041139Z 0412/0518 04009KT 2SM SHRA SCT003 OVC012 FM041300 02015G23KT 1SM +SHRA SCT001 OVC008 FM041400 01026G38KT 4SM +SHRA SCT001 OVC008 FM041700 31016KT P6SM -SHRA SCT020 OVC070 FM041900 28013KT P6SM SCT035 BKN250 FM050300 21005KT P6SM FEW200 SCT250


Runway Data for KBWI
Data provided by openaviationdata.com

Runway ID Mag Var Hdg Length Elevation Surface ILS Freq ILS Id ILS Slope
4 -11 44° 6002 ft 146 ft Asphalt -- -- --
10 -11 105° 10489 ft 146 ft Asphalt 109.7 IBAL 3
15L -11 155° 5000 ft 146 ft Asphalt 111.95 IUQC 3
15R -11 155° 9503 ft 146 ft Asphalt 111.7 IFND 3
22 -11 224° 6002 ft 146 ft Asphalt -- -- --
28 -11 285° 10489 ft 146 ft Asphalt 109.7 IOEH 3
33L -11 335° 9503 ft 146 ft Asphalt 111.7 IRUX 3
33R -11 335° 5000 ft 146 ft Asphalt 111.95 IBWI 3

Baltimore Washington International Airport, United States
Use only for reference purposes



Not for navigational purposes.